Time;durP1;ratioP1;P1;durP2;ratioP2;P2;SDS_P1;SDS_P2;PMS_P1;PMS_P2;Temp;Humidity;BMP_temperature;BMP_pressure;BME280_temperature;BME280_humidity;BME280_pressure;Samples;Min_cycle;Max_cycle;Signal;HPM_P1;HPM_P2
2023/11/17 00:01:43;;;;;;;1.25;0.85;;;3.50;93.20;;;;;;5007267;28;20042;-87
2023/11/17 00:04:09;;;;;;;0.75;0.47;;;3.50;93.20;;;;;;5007684;28;20099;-88
2023/11/17 00:06:34;;;;;;;1.42;0.50;;;3.50;93.20;;;;;;5007056;28;20471;-87
2023/11/17 00:09:00;;;;;;;0.45;0.40;;;3.50;93.20;;;;;;5009709;28;20030;-86
2023/11/17 00:11:26;;;;;;;0.82;0.50;;;3.50;93.40;;;;;;5016802;28;20113;-87
2023/11/17 00:13:53;;;;;;;1.20;0.80;;;3.50;93.30;;;;;;5009338;28;20053;-87
2023/11/17 00:16:19;;;;;;;1.05;0.60;;;3.60;93.40;;;;;;5010004;28;20040;-86
2023/11/17 00:18:44;;;;;;;0.70;0.50;;;3.60;93.30;;;;;;5016671;28;20034;-85
2023/11/17 00:21:15;;;;;;;1.30;0.75;;;3.60;93.30;;;;;;5003652;28;20034;-85
2023/11/17 00:23:40;;;;;;;0.60;0.60;;;3.50;93.40;;;;;;5010446;28;20033;-88
2023/11/17 00:26:06;;;;;;;1.02;0.57;;;3.60;93.30;;;;;;5016472;28;20627;-88
2023/11/17 00:28:39;;;;;;;0.30;0.30;;;3.60;93.30;;;;;;5014243;28;20473;-87
2023/11/17 00:31:09;;;;;;;2.08;0.80;;;3.60;93.30;;;;;;5013287;28;20068;-87
2023/11/17 00:33:35;;;;;;;0.93;0.63;;;3.70;93.00;;;;;;5008695;28;20025;-88
2023/11/17 00:36:00;;;;;;;2.05;1.05;;;3.70;93.10;;;;;;5012888;28;20061;-86
2023/11/17 00:38:29;;;;;;;1.27;0.52;;;3.80;93.20;;;;;;5006318;28;20038;-88
2023/11/17 00:40:58;;;;;;;2.17;0.90;;;3.70;93.00;;;;;;5008536;28;20045;-86
2023/11/17 00:43:25;;;;;;;0.85;0.63;;;3.80;93.10;;;;;;5009257;28;20060;-87
2023/11/17 00:45:57;;;;;;;0.63;0.60;;;3.80;93.10;;;;;;5005972;28;20467;-88
2023/11/17 00:48:23;;;;;;;0.85;0.55;;;3.90;93.20;;;;;;5010417;28;20046;-88
2023/11/17 00:50:49;;;;;;;0.93;0.60;;;3.90;93.00;;;;;;5016045;28;20037;-85
2023/11/17 00:53:15;;;;;;;1.00;0.60;;;3.90;92.80;;;;;;5011277;28;20041;-87
2023/11/17 00:55:41;;;;;;;0.73;0.47;;;3.90;92.90;;;;;;5010657;28;20026;-85
2023/11/17 00:58:08;;;;;;;1.08;0.60;;;3.90;92.70;;;;;;5010556;28;20037;-87
2023/11/17 01:00:34;;;;;;;0.45;0.43;;;3.90;92.90;;;;;;5008672;28;20031;-86
2023/11/17 01:02:59;;;;;;;1.40;0.70;;;3.90;93.00;;;;;;5006241;28;20100;-87
2023/11/17 01:05:25;;;;;;;2.15;0.70;;;3.90;92.60;;;;;;5010373;28;20029;-87
2023/11/17 01:07:50;;;;;;;0.98;0.60;;;3.90;92.40;;;;;;5012527;28;20040;-85
2023/11/17 01:10:16;;;;;;;0.98;0.60;;;4.00;92.50;;;;;;5006544;28;20033;-87
2023/11/17 01:12:41;;;;;;;1.20;0.75;;;4.00;92.20;;;;;;5010997;28;20041;-87
2023/11/17 01:15:07;;;;;;;0.65;0.50;;;4.00;92.30;;;;;;5010932;28;20378;-86
2023/11/17 01:17:33;;;;;;;1.13;0.47;;;4.00;92.20;;;;;;5007203;28;20030;-88
2023/11/17 01:19:59;;;;;;;0.90;0.43;;;4.00;92.10;;;;;;5012921;28;20458;-87
2023/11/17 01:22:24;;;;;;;4.72;0.70;;;4.00;92.20;;;;;;5006498;28;20084;-88
2023/11/17 01:24:50;;;;;;;0.43;0.43;;;4.10;92.20;;;;;;5009010;28;20879;-87
2023/11/17 01:27:16;;;;;;;1.25;0.50;;;4.10;92.00;;;;;;5007930;28;20050;-87
2023/11/17 01:29:41;;;;;;;0.50;0.43;;;4.10;92.10;;;;;;5006950;28;20037;-86
2023/11/17 01:32:07;;;;;;;1.02;0.60;;;4.10;91.80;;;;;;5008571;28;20064;-87
2023/11/17 01:34:32;;;;;;;2.00;0.63;;;4.10;92.00;;;;;;5015515;28;20117;-86
2023/11/17 01:36:58;;;;;;;1.25;0.68;;;4.10;92.00;;;;;;5012854;28;20459;-87
2023/11/17 01:39:24;;;;;;;0.95;0.60;;;4.10;91.90;;;;;;5010929;28;20056;-87
2023/11/17 01:41:50;;;;;;;0.43;0.32;;;4.10;92.10;;;;;;5014046;28;20034;-87
2023/11/17 01:44:16;;;;;;;0.85;0.52;;;4.10;91.80;;;;;;5011250;28;20057;-87
2023/11/17 01:46:45;;;;;;;0.50;0.40;;;4.10;91.90;;;;;;5006451;28;20550;-87
2023/11/17 01:49:12;;;;;;;0.93;0.55;;;4.10;92.00;;;;;;5010701;28;20037;-87
2023/11/17 01:51:38;;;;;;;0.50;0.45;;;4.10;92.10;;;;;;5009404;28;20026;-87
2023/11/17 01:54:04;;;;;;;0.40;0.40;;;4.10;92.00;;;;;;5008114;28;20034;-86
2023/11/17 01:56:31;;;;;;;0.60;0.50;;;4.10;92.10;;;;;;5006517;28;20026;-88
2023/11/17 01:58:56;;;;;;;0.32;0.32;;;4.10;91.90;;;;;;5009087;28;20029;-87
2023/11/17 02:01:22;;;;;;;0.77;0.68;;;4.10;92.00;;;;;;5003114;28;20034;-86
2023/11/17 02:03:48;;;;;;;0.40;0.40;;;4.10;91.90;;;;;;5008919;28;20022;-87
2023/11/17 02:06:33;;;;;;;0.30;0.30;;;4.10;92.00;;;;;;5005452;28;20456;-86
2023/11/17 02:09:36;;;;;;;0.65;0.50;;;4.10;92.20;;;;;;5005079;28;20098;-87
2023/11/17 02:12:23;;;;;;;0.88;0.52;;;4.10;92.30;;;;;;4992459;28;20625;-87
2023/11/17 02:14:50;;;;;;;2.58;0.60;;;4.10;92.50;;;;;;5003634;28;20025;-86
2023/11/17 02:17:18;;;;;;;0.80;0.43;;;4.00;92.60;;;;;;5006402;28;20172;-87
2023/11/17 02:19:45;;;;;;;0.40;0.40;;;3.90;92.90;;;;;;5011286;28;20029;-87
2023/11/17 02:22:17;;;;;;;0.40;0.28;;;3.90;93.00;;;;;;5005459;28;20038;-88
2023/11/17 02:25:10;;;;;;;0.70;0.50;;;3.90;93.10;;;;;;5006765;28;20038;-86
2023/11/17 02:27:59;;;;;;;1.45;0.63;;;3.80;93.20;;;;;;5005271;28;20042;-88
2023/11/17 02:30:28;;;;;;;0.35;0.30;;;3.70;93.30;;;;;;5006194;28;20406;-88
2023/11/17 02:32:55;;;;;;;0.60;0.55;;;3.60;93.60;;;;;;5001686;28;20048;-86
2023/11/17 02:35:28;;;;;;;0.60;0.50;;;3.60;93.80;;;;;;5008588;28;20026;-87
2023/11/17 02:38:00;;;;;;;0.75;0.45;;;3.60;94.00;;;;;;5010147;28;20045;-87
2023/11/17 02:40:29;;;;;;;1.85;0.50;;;3.60;94.10;;;;;;5010709;28;20028;-87
2023/11/17 02:42:57;;;;;;;3.45;0.57;;;3.60;94.20;;;;;;5013755;28;20037;-88
2023/11/17 02:45:25;;;;;;;0.63;0.57;;;3.60;94.30;;;;;;5004232;28;20092;-86
2023/11/17 02:47:56;;;;;;;0.43;0.43;;;3.60;94.20;;;;;;5005381;28;20045;-88
2023/11/17 02:50:31;;;;;;;0.55;0.40;;;3.50;94.30;;;;;;5005266;28;20391;-87
2023/11/17 02:53:17;;;;;;;0.32;0.30;;;3.60;94.30;;;;;;5010139;28;20045;-87
2023/11/17 02:55:44;;;;;;;0.82;0.47;;;3.60;94.30;;;;;;5007992;28;20516;-86
2023/11/17 02:58:15;;;;;;;1.48;0.63;;;3.60;94.40;;;;;;5012085;28;20281;-87
2023/11/17 03:00:41;;;;;;;2.22;0.63;;;3.60;94.20;;;;;;5003138;28;20032;-87
2023/11/17 03:03:06;;;;;;;0.73;0.50;;;3.60;94.20;;;;;;5008832;28;20045;-87
2023/11/17 03:05:32;;;;;;;0.70;0.50;;;3.60;94.10;;;;;;5007449;28;20556;-86
2023/11/17 03:08:00;;;;;;;0.85;0.60;;;3.60;93.90;;;;;;5005883;28;20045;-87
2023/11/17 03:10:26;;;;;;;1.63;0.70;;;3.70;93.80;;;;;;5005408;28;20030;-86
2023/11/17 03:12:55;;;;;;;1.33;0.73;;;3.70;93.80;;;;;;5010201;28;20044;-85
2023/11/17 03:15:21;;;;;;;1.05;0.60;;;3.80;93.50;;;;;;5005336;28;20077;-87
2023/11/17 03:17:46;;;;;;;0.73;0.47;;;3.80;93.30;;;;;;5007341;28;20092;-86
2023/11/17 03:20:14;;;;;;;0.60;0.40;;;3.80;93.00;;;;;;5007541;28;20592;-85
2023/11/17 03:22:45;;;;;;;0.85;0.47;;;3.80;92.80;;;;;;5009292;28;20193;-88
2023/11/17 03:25:15;;;;;;;0.60;0.50;;;3.90;92.60;;;;;;5005089;28;20033;-86
2023/11/17 03:27:44;;;;;;;0.85;0.70;;;3.90;92.50;;;;;;5009179;28;20403;-87
2023/11/17 03:30:13;;;;;;;0.82;0.70;;;3.90;92.50;;;;;;5005028;28;20038;-88
2023/11/17 03:32:38;;;;;;;1.38;0.57;;;3.90;92.60;;;;;;5011179;28;20084;-87
2023/11/17 03:35:04;;;;;;;1.58;0.55;;;3.90;92.20;;;;;;5006262;28;20451;-87
2023/11/17 03:37:31;;;;;;;0.90;0.50;;;4.00;92.20;;;;;;5007688;28;20099;-86
2023/11/17 03:39:56;;;;;;;0.85;0.50;;;3.90;92.20;;;;;;5002699;28;20076;-85
2023/11/17 03:42:22;;;;;;;0.98;0.73;;;3.90;92.00;;;;;;5009117;28;20504;-86
2023/11/17 03:44:48;;;;;;;0.40;0.40;;;3.90;92.00;;;;;;5002871;28;20042;-87
2023/11/17 03:47:15;;;;;;;1.40;0.60;;;3.90;91.90;;;;;;5004283;28;20038;-87
2023/11/17 03:49:43;;;;;;;0.73;0.60;;;3.90;92.10;;;;;;5009908;28;20371;-88
2023/11/17 03:52:14;;;;;;;1.98;0.77;;;3.90;91.60;;;;;;5010611;28;20475;-87
2023/11/17 03:54:39;;;;;;;1.35;0.40;;;4.00;91.80;;;;;;5010062;28;20108;-86
2023/11/17 03:57:06;;;;;;;0.63;0.50;;;4.00;91.60;;;;;;5009793;28;20510;-87
2023/11/17 03:59:32;;;;;;;0.95;0.70;;;4.00;91.70;;;;;;5011476;28;20038;-86
2023/11/17 04:01:58;;;;;;;1.02;0.38;;;4.00;91.70;;;;;;5007222;28;20030;-86
2023/11/17 04:04:25;;;;;;;0.65;0.57;;;4.00;91.50;;;;;;5012202;28;20030;-87
2023/11/17 04:06:54;;;;;;;0.55;0.38;;;4.00;91.70;;;;;;5011550;28;20446;-85
2023/11/17 04:09:21;;;;;;;0.52;0.35;;;4.00;91.50;;;;;;5017191;28;20034;-86
2023/11/17 04:11:47;;;;;;;1.15;0.40;;;4.00;91.70;;;;;;5006527;28;20487;-86
2023/11/17 04:14:13;;;;;;;0.77;0.57;;;4.00;91.50;;;;;;5011046;28;20477;-86
2023/11/17 04:16:40;;;;;;;0.50;0.43;;;4.10;91.70;;;;;;5011692;28;20220;-87
2023/11/17 04:19:05;;;;;;;0.80;0.60;;;4.10;91.80;;;;;;5012471;28;20048;-87
2023/11/17 04:21:32;;;;;;;0.40;0.40;;;4.10;91.70;;;;;;5012789;28;20026;-87
2023/11/17 04:23:58;;;;;;;0.60;0.50;;;4.10;91.90;;;;;;5015640;28;20049;-87
2023/11/17 04:26:23;;;;;;;0.60;0.60;;;4.10;91.70;;;;;;5014045;28;20046;-86
2023/11/17 04:28:49;;;;;;;0.52;0.50;;;4.10;91.60;;;;;;5007662;28;20117;-85
2023/11/17 04:31:14;;;;;;;0.63;0.55;;;4.10;91.70;;;;;;5015240;28;20046;-87
2023/11/17 04:33:40;;;;;;;0.45;0.45;;;4.10;91.70;;;;;;5012149;28;20033;-87
2023/11/17 04:36:09;;;;;;;0.28;0.22;;;4.10;91.80;;;;;;5007675;28;20053;-86
2023/11/17 04:38:34;;;;;;;0.70;0.63;;;4.10;91.80;;;;;;5013880;28;20112;-87
2023/11/17 04:41:00;;;;;;;2.22;0.70;;;4.10;91.80;;;;;;5014554;28;20164;-87
2023/11/17 04:43:25;;;;;;;0.70;0.38;;;4.10;91.90;;;;;;5012524;28;20485;-86
2023/11/17 04:45:51;;;;;;;0.75;0.63;;;4.10;92.10;;;;;;5003229;28;20160;-87
2023/11/17 04:48:17;;;;;;;1.17;0.60;;;4.10;92.00;;;;;;5010255;28;20049;-88
2023/11/17 04:50:43;;;;;;;0.80;0.50;;;4.00;92.00;;;;;;5008801;28;20030;-86
2023/11/17 04:53:09;;;;;;;1.77;0.73;;;4.10;91.90;;;;;;5009999;28;20034;-87
2023/11/17 04:55:34;;;;;;;0.50;0.50;;;4.10;91.90;;;;;;5012290;28;20080;-87
2023/11/17 04:58:00;;;;;;;0.50;0.50;;;4.10;92.10;;;;;;5005689;28;20475;-87
2023/11/17 05:00:26;;;;;;;0.47;0.40;;;4.00;92.10;;;;;;5005478;28;20136;-87
2023/11/17 05:02:55;;;;;;;0.65;0.50;;;4.10;92.30;;;;;;5006664;28;20038;-86
2023/11/17 05:05:20;;;;;;;0.50;0.43;;;4.00;92.40;;;;;;5009819;28;20033;-88
2023/11/17 05:07:47;;;;;;;0.57;0.40;;;3.90;92.40;;;;;;5007280;28;20490;-87
2023/11/17 05:10:14;;;;;;;0.80;0.60;;;3.90;92.60;;;;;;5012311;28;20034;-85
2023/11/17 05:12:42;;;;;;;1.27;0.55;;;3.80;92.90;;;;;;5007026;28;20033;-87
2023/11/17 05:15:12;;;;;;;0.73;0.60;;;3.80;92.90;;;;;;5012215;28;20034;-86
2023/11/17 05:17:43;;;;;;;1.00;0.60;;;3.80;93.20;;;;;;5004328;28;20037;-87
2023/11/17 05:20:13;;;;;;;0.40;0.40;;;3.70;93.50;;;;;;5006738;28;20427;-88
2023/11/17 05:22:42;;;;;;;0.75;0.57;;;3.70;93.60;;;;;;5008454;28;20034;-86
2023/11/17 05:25:08;;;;;;;0.77;0.60;;;3.60;93.80;;;;;;5012854;28;20442;-87
2023/11/17 05:27:35;;;;;;;0.30;0.30;;;3.50;94.00;;;;;;5010486;28;20049;-76
2023/11/17 05:30:04;;;;;;;0.60;0.40;;;3.50;94.30;;;;;;5002325;28;20598;-73
2023/11/17 05:32:30;;;;;;;0.50;0.47;;;3.40;94.40;;;;;;5004163;28;20030;-73
2023/11/17 05:34:56;;;;;;;0.52;0.50;;;3.40;94.70;;;;;;5009282;28;20037;-73
2023/11/17 05:37:22;;;;;;;1.10;0.70;;;3.30;94.90;;;;;;5006820;28;20037;-73
2023/11/17 05:39:48;;;;;;;3.40;0.40;;;3.40;94.90;;;;;;5010069;28;20022;-72
2023/11/17 05:42:14;;;;;;;0.63;0.60;;;3.30;95.00;;;;;;5007531;28;20044;-72
2023/11/17 05:44:39;;;;;;;0.73;0.40;;;3.30;95.10;;;;;;5009310;28;20044;-72
2023/11/17 05:47:07;;;;;;;0.77;0.65;;;3.10;95.30;;;;;;5009833;28;20504;-73
2023/11/17 05:49:34;;;;;;;0.98;0.52;;;3.10;95.50;;;;;;5004605;28;20041;-72
2023/11/17 05:52:00;;;;;;;1.48;0.60;;;3.00;95.50;;;;;;5001945;28;20026;-72
2023/11/17 05:54:25;;;;;;;0.85;0.65;;;2.90;95.80;;;;;;5007477;28;20026;-72
2023/11/17 05:56:51;;;;;;;1.00;0.52;;;2.90;96.20;;;;;;4994453;28;20030;-72
2023/11/17 05:59:16;;;;;;;0.75;0.50;;;3.00;96.30;;;;;;5002308;28;20379;-72
2023/11/17 06:01:42;;;;;;;0.55;0.55;;;3.00;96.30;;;;;;5006980;28;20034;-72
2023/11/17 06:04:11;;;;;;;0.77;0.57;;;3.00;96.20;;;;;;5007763;28;20026;-73
2023/11/17 06:06:40;;;;;;;1.17;0.60;;;3.00;96.20;;;;;;5005932;28;20049;-72
2023/11/17 06:09:12;;;;;;;1.38;0.63;;;3.00;96.20;;;;;;5004762;28;20481;-72
2023/11/17 06:11:39;;;;;;;1.20;0.60;;;3.00;96.20;;;;;;5004456;28;20038;-72
2023/11/17 06:14:06;;;;;;;1.45;0.80;;;2.90;96.20;;;;;;5007991;28;20034;-72
2023/11/17 06:16:33;;;;;;;1.33;0.80;;;2.80;96.40;;;;;;5004027;28;20466;-72
2023/11/17 06:18:59;;;;;;;1.02;0.60;;;2.80;96.60;;;;;;5011447;28;20030;-72
2023/11/17 06:21:26;;;;;;;0.88;0.52;;;2.70;96.70;;;;;;5005713;28;20045;-72
2023/11/17 06:23:51;;;;;;;0.75;0.50;;;2.70;96.80;;;;;;5011807;28;20451;-73
2023/11/17 06:26:17;;;;;;;1.30;0.82;;;2.70;96.90;;;;;;5009285;28;20129;-73
2023/11/17 06:28:43;;;;;;;1.13;0.80;;;2.60;97.00;;;;;;5003323;28;20041;-72
2023/11/17 06:31:08;;;;;;;1.85;0.80;;;2.60;97.00;;;;;;5003691;28;20028;-72
2023/11/17 06:33:34;;;;;;;2.38;0.82;;;2.50;97.20;;;;;;5010841;28;20052;-72
2023/11/17 06:36:03;;;;;;;0.82;0.70;;;2.40;97.40;;;;;;5011338;28;20030;-72
2023/11/17 06:38:29;;;;;;;1.73;1.00;;;2.50;97.50;;;;;;5008710;28;20360;-75
2023/11/17 06:40:56;;;;;;;2.30;0.80;;;2.40;97.60;;;;;;5009804;28;20038;-75
2023/11/17 06:43:22;;;;;;;0.70;0.70;;;2.30;97.80;;;;;;5009247;28;20349;-75
2023/11/17 06:45:52;;;;;;;1.42;0.90;;;2.30;98.00;;;;;;5006600;28;20026;-76
2023/11/17 06:48:18;;;;;;;1.65;0.88;;;2.30;98.20;;;;;;5005141;28;20421;-75
2023/11/17 06:50:44;;;;;;;1.58;0.98;;;2.30;98.10;;;;;;5005590;28;20141;-75
2023/11/17 06:53:12;;;;;;;2.50;0.98;;;2.40;98.20;;;;;;5008642;28;20120;-73
2023/11/17 06:55:38;;;;;;;2.78;1.20;;;2.50;98.30;;;;;;5004465;28;20082;-72
2023/11/17 06:58:04;;;;;;;2.05;1.08;;;2.50;98.30;;;;;;5002861;28;20026;-76
2023/11/17 07:00:30;;;;;;;2.53;0.95;;;2.60;98.30;;;;;;5010565;28;20029;-76
2023/11/17 07:02:57;;;;;;;3.13;1.08;;;2.60;98.30;;;;;;5004665;28;20052;-75
2023/11/17 07:05:24;;;;;;;2.28;1.23;;;2.60;98.30;;;;;;5011856;28;20033;-76
2023/11/17 07:07:52;;;;;;;2.20;1.20;;;2.60;98.20;;;;;;5008719;28;20037;-76
2023/11/17 07:10:18;;;;;;;2.85;1.13;;;2.60;98.20;;;;;;5011425;28;20033;-76
2023/11/17 07:12:45;;;;;;;2.97;1.38;;;2.60;98.20;;;;;;5002032;28;20451;-76
2023/11/17 07:15:13;;;;;;;2.67;1.33;;;2.60;98.10;;;;;;5007013;28;20112;-76
2023/11/17 07:17:39;;;;;;;2.22;1.50;;;2.50;98.20;;;;;;5008045;28;20034;-76
2023/11/17 07:20:09;;;;;;;2.03;0.95;;;2.40;98.30;;;;;;5012807;28;20025;-76
2023/11/17 07:22:35;;;;;;;2.47;1.52;;;2.40;98.30;;;;;;5000318;28;20033;-76
2023/11/17 07:25:01;;;;;;;2.35;1.50;;;2.30;98.40;;;;;;5002691;28;20069;-76
2023/11/17 07:27:28;;;;;;;2.58;1.23;;;2.30;98.40;;;;;;5008341;28;20081;-75
2023/11/17 07:29:54;;;;;;;2.08;1.00;;;2.30;98.50;;;;;;5002138;28;20469;-75
2023/11/17 07:32:20;;;;;;;1.85;1.15;;;2.20;98.40;;;;;;5008776;28;20073;-76
2023/11/17 07:34:46;;;;;;;3.85;1.70;;;2.20;98.50;;;;;;5008733;28;20178;-75
2023/11/17 07:37:11;;;;;;;2.88;1.42;;;2.20;98.60;;;;;;5006900;28;20536;-75
2023/11/17 07:39:37;;;;;;;2.30;1.30;;;2.20;98.60;;;;;;5009258;28;20038;-76
2023/11/17 07:42:04;;;;;;;2.15;1.10;;;2.40;98.80;;;;;;5010391;28;20398;-76
2023/11/17 07:44:30;;;;;;;3.30;1.42;;;2.30;98.70;;;;;;5003342;28;20030;-75
2023/11/17 07:46:58;;;;;;;3.80;1.10;;;2.40;98.70;;;;;;5006477;28;20042;-76
2023/11/17 07:49:25;;;;;;;2.88;1.33;;;2.40;98.80;;;;;;5008033;28;20453;-76
2023/11/17 07:51:53;;;;;;;2.88;1.48;;;2.40;98.70;;;;;;5006142;28;20061;-76
2023/11/17 07:54:19;;;;;;;1.85;1.13;;;2.50;98.80;;;;;;5002944;28;20030;-76
2023/11/17 07:56:46;;;;;;;1.77;1.10;;;2.50;98.90;;;;;;5005092;28;20026;-76
2023/11/17 07:59:12;;;;;;;2.70;1.23;;;2.60;98.90;;;;;;5013726;28;20514;-76
2023/11/17 08:01:39;;;;;;;1.00;0.80;;;2.60;98.90;;;;;;4996490;28;20034;-75
2023/11/17 08:04:05;;;;;;;2.92;1.33;;;2.60;98.80;;;;;;5009319;28;20065;-76
2023/11/17 08:06:31;;;;;;;2.15;1.33;;;2.70;98.80;;;;;;5009980;28;20447;-76
2023/11/17 08:08:56;;;;;;;3.15;1.50;;;2.80;98.90;;;;;;5004722;28;20040;-76
2023/11/17 08:11:25;;;;;;;2.10;1.38;;;2.80;98.80;;;;;;5002063;28;20034;-76
2023/11/17 08:13:51;;;;;;;2.20;1.20;;;2.90;98.70;;;;;;5006356;28;20209;-76
2023/11/17 08:16:17;;;;;;;2.78;1.23;;;3.00;98.60;;;;;;5001406;28;20270;-76
2023/11/17 08:18:45;;;;;;;2.38;1.10;;;3.10;98.50;;;;;;5006693;28;20501;-75
2023/11/17 08:21:13;;;;;;;3.33;1.48;;;3.20;98.40;;;;;;5015985;28;20053;-76
2023/11/17 08:23:39;;;;;;;2.00;1.15;;;3.30;98.10;;;;;;4997394;28;20033;-76
2023/11/17 08:26:05;;;;;;;2.30;1.17;;;3.30;98.00;;;;;;5002760;28;20388;-76
2023/11/17 08:28:32;;;;;;;2.47;1.10;;;3.50;97.90;;;;;;5003804;28;20034;-75
2023/11/17 08:30:57;;;;;;;2.75;1.10;;;3.60;97.70;;;;;;4995834;28;20022;-73
2023/11/17 08:33:24;;;;;;;1.10;0.70;;;3.60;97.40;;;;;;5006150;28;20034;-73
2023/11/17 08:35:50;;;;;;;2.92;1.17;;;3.70;97.30;;;;;;5011075;28;20022;-72
2023/11/17 08:38:16;;;;;;;2.08;1.30;;;3.70;96.90;;;;;;5015477;28;20030;-72
2023/11/17 08:40:44;;;;;;;2.42;1.05;;;3.80;96.90;;;;;;5008048;28;20038;-72
2023/11/17 08:43:10;;;;;;;1.95;0.98;;;3.90;96.70;;;;;;5010782;28;20029;-72
2023/11/17 08:45:36;;;;;;;2.03;1.25;;;4.00;96.60;;;;;;5007125;28;20533;-72
2023/11/17 08:48:02;;;;;;;1.55;1.10;;;4.00;96.30;;;;;;5006284;28;20056;-73
2023/11/17 08:50:28;;;;;;;2.25;0.82;;;4.10;96.20;;;;;;5010124;28;20041;-72
2023/11/17 08:52:54;;;;;;;1.02;0.70;;;4.20;96.10;;;;;;5008215;28;20033;-72
2023/11/17 08:55:23;;;;;;;1.20;0.85;;;4.40;95.80;;;;;;5006767;28;20038;-73
2023/11/17 08:57:49;;;;;;;0.90;0.60;;;4.60;95.30;;;;;;5009820;28;20037;-72
2023/11/17 09:00:18;;;;;;;1.17;0.70;;;4.80;94.70;;;;;;5006826;28;20446;-72
2023/11/17 09:02:45;;;;;;;1.67;0.60;;;4.90;93.80;;;;;;5012509;28;20037;-72
2023/11/17 09:05:12;;;;;;;3.08;0.90;;;5.00;93.10;;;;;;5015926;28;20096;-72
2023/11/17 09:07:42;;;;;;;0.95;0.68;;;5.00;92.60;;;;;;5012863;28;20034;-72
2023/11/17 09:10:08;;;;;;;1.05;0.73;;;5.00;92.50;;;;;;5003587;28;20057;-73
2023/11/17 09:12:42;;;;;;;1.58;0.80;;;5.00;92.50;;;;;;5004405;28;20096;-73
2023/11/17 09:15:09;;;;;;;1.40;0.70;;;5.00;92.60;;;;;;5000330;28;20042;-72
2023/11/17 09:17:36;;;;;;;0.85;0.70;;;5.10;92.40;;;;;;5008989;28;20033;-75
2023/11/17 09:20:06;;;;;;;1.48;0.93;;;5.10;92.10;;;;;;5006975;28;20096;-72
2023/11/17 09:22:31;;;;;;;1.02;0.57;;;5.10;92.10;;;;;;5004631;28;20410;-73
2023/11/17 09:24:57;;;;;;;0.52;0.50;;;5.20;92.20;;;;;;5012454;28;20087;-73
2023/11/17 09:27:22;;;;;;;1.20;0.82;;;5.20;91.50;;;;;;5009821;28;20442;-73
2023/11/17 09:29:48;;;;;;;1.45;0.60;;;5.30;91.40;;;;;;5006870;28;20034;-73
2023/11/17 09:32:14;;;;;;;1.10;0.40;;;5.50;91.90;;;;;;5009005;28;20408;-73
2023/11/17 09:34:39;;;;;;;1.00;0.80;;;5.70;91.20;;;;;;5010681;28;20037;-72
2023/11/17 09:37:05;;;;;;;0.40;0.40;;;5.70;89.80;;;;;;5008587;28;20034;-72
2023/11/17 09:39:31;;;;;;;1.15;0.65;;;5.60;89.70;;;;;;5011251;28;20459;-72
2023/11/17 09:41:58;;;;;;;0.88;0.50;;;5.60;89.50;;;;;;5011582;28;20108;-72
2023/11/17 09:44:27;;;;;;;0.75;0.55;;;5.60;89.40;;;;;;5006499;28;20033;-72
2023/11/17 09:46:56;;;;;;;1.45;0.70;;;5.80;89.70;;;;;;4997706;28;20073;-72
2023/11/17 09:49:28;;;;;;;1.27;0.57;;;5.90;89.40;;;;;;5010186;28;20064;-72
2023/11/17 09:51:55;;;;;;;0.90;0.57;;;5.90;89.20;;;;;;5008643;28;20034;-72
2023/11/17 09:54:23;;;;;;;0.28;0.28;;;5.70;88.40;;;;;;5008612;28;20141;-72
2023/11/17 09:56:53;;;;;;;1.05;0.35;;;5.70;88.80;;;;;;5008145;28;20033;-72
2023/11/17 09:59:19;;;;;;;1.15;0.70;;;5.60;88.70;;;;;;4999640;28;20363;-72
2023/11/17 10:01:46;;;;;;;0.65;0.43;;;5.80;88.90;;;;;;5004231;28;20022;-72
2023/11/17 10:04:13;;;;;;;0.80;0.52;;;5.90;88.60;;;;;;5011769;28;20037;-72
2023/11/17 10:06:41;;;;;;;0.50;0.40;;;5.80;88.70;;;;;;5007267;28;20471;-72
2023/11/17 10:09:07;;;;;;;0.20;0.20;;;6.10;89.00;;;;;;5006208;28;20034;-72
2023/11/17 10:11:33;;;;;;;0.40;0.40;;;5.90;88.50;;;;;;5003114;28;20448;-72
2023/11/17 10:14:01;;;;;;;0.77;0.50;;;5.80;89.00;;;;;;5008733;28;20029;-72
2023/11/17 10:16:27;;;;;;;1.83;0.80;;;5.90;88.60;;;;;;5023057;28;20042;-72
2023/11/17 10:18:54;;;;;;;0.50;0.40;;;5.80;88.50;;;;;;5002022;28;20034;-72
2023/11/17 10:21:19;;;;;;;0.43;0.40;;;5.70;88.50;;;;;;5014474;28;20034;-72
2023/11/17 10:23:46;;;;;;;1.65;0.75;;;5.50;89.40;;;;;;5007157;28;20060;-72
2023/11/17 10:26:12;;;;;;;0.85;0.60;;;5.40;89.40;;;;;;5004821;28;20141;-72
2023/11/17 10:28:38;;;;;;;1.10;0.60;;;5.30;89.60;;;;;;5007400;28;20034;-72
2023/11/17 10:31:07;;;;;;;0.30;0.30;;;5.50;89.80;;;;;;5005102;28;20033;-72
2023/11/17 10:33:42;;;;;;;1.38;0.50;;;5.60;89.40;;;;;;5000313;28;20033;-72
2023/11/17 10:36:10;;;;;;;1.27;0.60;;;5.50;89.20;;;;;;5010232;28;20033;-72
2023/11/17 10:38:37;;;;;;;0.82;0.60;;;5.80;88.90;;;;;;5008307;28;20609;-72
2023/11/17 10:41:17;;;;;;;1.30;0.60;;;6.10;88.10;;;;;;5009473;28;20038;-72
2023/11/17 10:43:47;;;;;;;0.60;0.40;;;6.40;87.20;;;;;;5005197;28;20421;-73
2023/11/17 10:46:12;;;;;;;0.52;0.40;;;6.80;86.90;;;;;;5001419;28;20026;-73
2023/11/17 10:48:39;;;;;;;0.90;0.40;;;7.20;86.50;;;;;;5006839;28;20073;-73
2023/11/17 10:51:05;;;;;;;0.30;0.30;;;7.30;85.90;;;;;;5003128;28;20406;-73
2023/11/17 10:53:30;;;;;;;1.13;0.60;;;7.10;85.60;;;;;;5018947;28;20034;-73
2023/11/17 10:55:57;;;;;;;1.52;0.55;;;7.00;86.00;;;;;;5007713;28;20045;-73
2023/11/17 10:58:24;;;;;;;1.02;0.40;;;6.80;85.80;;;;;;5001285;28;20064;-73
2023/11/17 11:00:51;;;;;;;0.75;0.45;;;7.00;86.90;;;;;;5004297;28;20402;-73
2023/11/17 11:03:18;;;;;;;1.10;0.50;;;7.10;86.30;;;;;;5001190;28;20105;-73
2023/11/17 11:05:46;;;;;;;1.15;0.50;;;6.80;86.80;;;;;;5005613;28;20041;-73
2023/11/17 11:08:17;;;;;;;0.57;0.50;;;6.60;86.60;;;;;;5004135;28;20100;-73
2023/11/17 11:10:54;;;;;;;1.33;0.60;;;6.50;87.40;;;;;;5004657;28;20046;-72
2023/11/17 11:13:29;;;;;;;0.85;0.50;;;6.40;87.70;;;;;;4995134;28;20038;-72
2023/11/17 11:16:08;;;;;;;1.67;0.55;;;6.40;87.80;;;;;;4998712;28;20030;-72
2023/11/17 11:18:48;;;;;;;1.00;0.65;;;6.40;87.50;;;;;;5002775;28;20064;-73
2023/11/17 11:21:17;;;;;;;0.80;0.55;;;6.40;88.00;;;;;;5003005;28;20076;-73
2023/11/17 11:23:48;;;;;;;2.08;0.60;;;6.40;88.20;;;;;;5011897;28;20478;-73
2023/11/17 11:26:15;;;;;;;0.80;0.45;;;6.30;87.70;;;;;;4999568;28;20054;-72
2023/11/17 11:28:41;;;;;;;0.60;0.30;;;6.20;88.10;;;;;;4998359;28;20455;-73
2023/11/17 11:31:12;;;;;;;0.50;0.30;;;6.10;88.10;;;;;;5003772;28;20061;-72
2023/11/17 11:33:38;;;;;;;0.52;0.40;;;6.10;88.80;;;;;;5002348;28;20032;-72
2023/11/17 11:36:05;;;;;;;0.65;0.40;;;6.00;88.30;;;;;;5003895;28;20037;-72
2023/11/17 11:38:32;;;;;;;0.90;0.43;;;6.10;88.80;;;;;;5004504;28;20034;-74
2023/11/17 11:40:58;;;;;;;0.55;0.40;;;6.00;88.80;;;;;;5002471;28;20113;-72
2023/11/17 11:43:27;;;;;;;0.30;0.30;;;5.90;88.50;;;;;;5004628;28;20026;-72
2023/11/17 11:45:55;;;;;;;2.13;0.50;;;6.00;88.90;;;;;;5001085;28;20043;-71
2023/11/17 11:48:24;;;;;;;1.10;0.32;;;5.90;88.40;;;;;;5004431;28;20044;-71
2023/11/17 11:50:54;;;;;;;0.73;0.30;;;6.00;88.40;;;;;;5001427;28;20435;-72
2023/11/17 11:53:25;;;;;;;0.60;0.50;;;6.00;88.50;;;;;;5010348;28;20117;-72
2023/11/17 11:55:53;;;;;;;0.40;0.38;;;6.00;88.50;;;;;;5002283;28;20034;-72
2023/11/17 11:58:19;;;;;;;1.08;0.70;;;5.90;88.40;;;;;;5006313;28;20034;-72
2023/11/17 12:00:54;;;;;;;0.75;0.60;;;6.00;88.70;;;;;;5002485;28;20420;-72
2023/11/17 12:03:20;;;;;;;1.27;0.50;;;5.90;88.30;;;;;;5003692;28;20025;-72
2023/11/17 12:05:46;;;;;;;0.38;0.38;;;6.00;87.90;;;;;;5010761;28;20489;-72
2023/11/17 12:08:23;;;;;;;0.85;0.50;;;6.10;88.10;;;;;;5001528;28;20026;-72
2023/11/17 12:10:48;;;;;;;0.30;0.30;;;6.10;87.70;;;;;;5004997;28;20038;-72
2023/11/17 12:13:37;;;;;;;0.98;0.45;;;6.00;87.90;;;;;;5008751;28;20080;-72
2023/11/17 12:16:06;;;;;;;0.35;0.28;;;6.00;87.00;;;;;;5006193;28;20035;-72
2023/11/17 12:18:32;;;;;;;0.55;0.40;;;6.10;87.60;;;;;;5004552;28;20395;-72
2023/11/17 12:21:16;;;;;;;0.52;0.40;;;6.00;87.50;;;;;;5010632;28;20061;-72
2023/11/17 12:24:04;;;;;;;0.50;0.40;;;6.00;87.90;;;;;;5002242;28;20563;-72
2023/11/17 12:26:30;;;;;;;0.40;0.35;;;6.10;88.50;;;;;;5001459;28;20038;-72
2023/11/17 12:28:59;;;;;;;0.30;0.30;;;6.10;88.60;;;;;;5011135;28;20112;-72
2023/11/17 12:31:25;;;;;;;0.50;0.50;;;6.10;88.50;;;;;;5001779;28;20073;-73
2023/11/17 12:33:53;;;;;;;0.40;0.40;;;6.10;88.10;;;;;;5008598;28;20065;-72
2023/11/17 12:36:21;;;;;;;0.88;0.60;;;6.10;88.10;;;;;;5012109;28;20030;-72
2023/11/17 12:38:55;;;;;;;1.05;0.45;;;6.00;88.10;;;;;;5010642;28;20108;-72
2023/11/17 12:41:22;;;;;;;0.98;0.57;;;5.90;88.30;;;;;;5006235;28;20025;-72
2023/11/17 12:43:49;;;;;;;0.75;0.50;;;5.80;88.40;;;;;;5007384;28;20034;-72
2023/11/17 12:46:15;;;;;;;0.43;0.43;;;5.90;88.60;;;;;;5010174;28;20037;-72
2023/11/17 12:48:45;;;;;;;0.30;0.28;;;5.70;88.60;;;;;;5007711;28;20120;-72
2023/11/17 12:51:21;;;;;;;0.30;0.30;;;5.80;88.70;;;;;;5004190;28;20037;-72
2023/11/17 12:53:47;;;;;;;0.40;0.40;;;5.70;88.60;;;;;;5012944;28;20490;-72
2023/11/17 12:56:13;;;;;;;0.68;0.38;;;5.60;88.50;;;;;;5001775;28;20042;-71
2023/11/17 12:58:39;;;;;;;0.52;0.32;;;5.60;89.30;;;;;;5006283;28;20089;-71
2023/11/17 13:01:16;;;;;;;1.02;0.50;;;5.70;89.10;;;;;;5002165;28;20022;-72